createdAt,value
2018-10-19T00:00:41.074Z,79.97
2018-10-19T00:03:40.948Z,79.84
2018-10-19T00:05:45.859Z,79.60
2018-10-19T00:07:41.035Z,79.08
2018-10-19T00:08:40.968Z,79.50
2018-10-19T00:09:40.981Z,79.31
2018-10-19T00:11:47.608Z,79.84
2018-10-19T00:12:40.877Z,79.74
2018-10-19T00:13:40.871Z,80.32
2018-10-19T00:14:41.198Z,80.22
2018-10-19T00:15:40.801Z,80.32
2018-10-19T00:17:44.446Z,80.22
2018-10-19T00:18:40.709Z,80.41
2018-10-19T00:19:40.701Z,80.41
2018-10-19T00:20:40.755Z,80.51
2018-10-19T00:21:40.706Z,80.13
2018-10-19T00:23:40.895Z,80.03
2018-10-19T00:24:40.627Z,80.13
2018-10-19T00:25:40.956Z,80.22
2018-10-19T00:26:40.523Z,80.13
2018-10-19T00:27:40.556Z,79.74
2018-10-19T00:28:40.584Z,79.65
2018-10-19T00:29:41.232Z,79.65
2018-10-19T00:30:40.530Z,79.46
2018-10-19T00:31:43.702Z,79.65
2018-10-19T00:32:40.463Z,79.65
2018-10-19T00:33:40.447Z,79.84
2018-10-19T00:34:40.511Z,79.46
2018-10-19T00:35:40.447Z,79.46
2018-10-19T00:37:40.482Z,79.17
2018-10-19T00:38:40.221Z,79.46
2018-10-19T00:39:40.193Z,78.61
2018-10-19T00:41:40.249Z,79.17
2018-10-19T00:42:40.230Z,79.17
2018-10-19T00:44:40.190Z,79.84
2018-10-19T00:45:40.066Z,79.65
2018-10-19T00:46:40.044Z,79.65
2018-10-19T00:47:40.019Z,80.08
2018-10-19T00:50:40.259Z,79.71
2018-10-19T00:51:39.946Z,79.52
2018-10-19T00:52:40.016Z,79.61
2018-10-19T00:53:40.201Z,79.33
2018-10-19T00:54:39.872Z,79.33
2018-10-19T00:55:39.937Z,79.23
2018-10-19T00:57:39.859Z,79.33
2018-10-19T00:58:39.784Z,79.61
2018-10-19T01:00:39.745Z,79.04
2018-10-19T01:01:40.323Z,79.23
2018-10-19T01:02:39.699Z,79.33
2018-10-19T01:03:41.331Z,78.95
2018-10-19T01:04:39.661Z,79.42
2018-10-19T01:05:39.727Z,79.52
2018-10-19T01:06:39.621Z,79.61
2018-10-19T01:07:39.593Z,79.33
2018-10-19T01:08:39.573Z,79.04
2018-10-19T01:09:42.979Z,80.08
2018-10-19T01:10:39.532Z,79.61
2018-10-19T01:11:39.504Z,79.42
2018-10-19T01:12:39.481Z,79.71
2018-10-19T01:13:39.463Z,79.99
2018-10-19T01:14:39.441Z,80.18
2018-10-19T01:15:39.532Z,80.65
2018-10-19T01:16:39.395Z,80.56
2018-10-19T01:17:39.381Z,81.32
2018-10-19T01:19:39.634Z,80.94
2018-10-19T01:20:39.311Z,80.71
2018-10-19T01:21:39.339Z,80.80
2018-10-19T01:22:39.266Z,80.90
2018-10-19T01:23:39.242Z,81.27
2018-10-19T01:24:39.221Z,80.52
2018-10-19T01:25:39.202Z,80.65
2018-10-19T01:26:39.178Z,80.27
2018-10-19T01:27:39.156Z,80.18
2018-10-19T01:28:39.243Z,79.33
2018-10-19T01:29:43.084Z,79.80
2018-10-19T01:30:39.091Z,79.90
2018-10-19T01:32:39.351Z,79.61
2018-10-19T01:33:39.077Z,79.80
2018-10-19T01:34:39.015Z,79.61
2018-10-19T01:35:40.734Z,79.76
2018-10-19T01:36:38.964Z,79.57
2018-10-19T01:37:38.940Z,79.38
2018-10-19T01:39:39.217Z,80.33
2018-10-19T01:40:38.873Z,79.47
2018-10-19T01:41:38.905Z,79.76
2018-10-19T01:42:38.831Z,79.57
2018-10-19T01:43:38.831Z,80.04
2018-10-19T01:44:38.953Z,79.95
2018-10-19T01:45:38.768Z,80.14
2018-10-19T01:46:38.742Z,80.14
2018-10-19T01:47:43.433Z,80.14
2018-10-19T01:48:38.695Z,80.52
2018-10-19T01:50:38.651Z,80.52
2018-10-19T01:54:45.172Z,80.43
2018-10-19T01:55:38.540Z,80.04
2018-10-19T01:56:38.524Z,80.04
2018-10-19T01:57:38.506Z,79.76
2018-10-19T02:02:38.395Z,79.76
2018-10-19T02:03:38.368Z,79.95
2018-10-19T02:04:38.408Z,79.76
2018-10-19T02:06:43.896Z,80.04
2018-10-19T02:07:38.677Z,79.85
2018-10-19T02:08:38.395Z,79.47
2018-10-19T02:09:38.345Z,80.14
2018-10-19T02:10:38.237Z,80.14
2018-10-19T02:11:38.189Z,80.04
2018-10-19T02:13:43.975Z,80.52
2018-10-19T02:14:38.204Z,80.80
2018-10-19T02:15:38.130Z,80.90
2018-10-19T02:16:38.093Z,80.80
2018-10-19T02:17:38.139Z,80.48
2018-10-19T02:18:38.068Z,80.10
2018-10-19T02:19:42.691Z,79.82
2018-10-19T02:20:38.089Z,79.47
2018-10-19T02:21:38.023Z,79.76
2018-10-19T02:22:38.059Z,79.19
2018-10-19T02:23:37.953Z,79.10
2018-10-19T02:24:37.916Z,79.19
2018-10-19T02:25:44.415Z,79.00
2018-10-19T02:26:37.992Z,79.28
2018-10-19T02:27:37.866Z,80.00
2018-10-19T02:28:37.964Z,79.57
2018-10-19T02:29:37.985Z,79.57
2018-10-19T02:30:37.815Z,79.00
2018-10-19T02:31:37.841Z,79.28
2018-10-19T02:32:37.721Z,79.28
2018-10-19T02:33:37.696Z,79.28
2018-10-19T02:34:37.682Z,79.57
2018-10-19T02:35:37.653Z,80.04
2018-10-19T02:39:37.566Z,80.90
2018-10-19T02:40:37.551Z,80.71
2018-10-19T02:41:39.028Z,81.43
2018-10-19T02:42:37.496Z,81.52
2018-10-19T02:43:37.471Z,81.43
2018-10-19T02:44:37.706Z,81.24
2018-10-19T02:45:37.436Z,81.71
2018-10-19T02:46:37.414Z,81.90
2018-10-19T02:47:37.389Z,81.90
2018-10-19T02:49:37.442Z,81.62
2018-10-19T02:51:37.293Z,82.28
2018-10-19T02:52:37.279Z,82.18
2018-10-19T02:53:37.251Z,82.28
2018-10-19T02:54:37.234Z,82.09
2018-10-19T02:55:37.205Z,82.09
2018-10-19T02:56:43.790Z,81.90
2018-10-19T02:58:37.240Z,82.09
2018-10-19T02:59:37.115Z,81.99
2018-10-19T03:00:37.091Z,82.28
2018-10-19T03:01:37.124Z,81.81
2018-10-19T03:02:37.252Z,82.47
2018-10-19T03:03:37.023Z,82.09
2018-10-19T03:04:37.012Z,82.18
2018-10-19T03:05:36.981Z,81.90
2018-10-19T03:06:37.257Z,81.90
2018-10-19T03:08:36.969Z,82.09
2018-10-19T03:09:36.942Z,81.90
2018-10-19T03:10:36.871Z,82.28
2018-10-19T03:11:36.877Z,81.90
2018-10-19T03:12:36.868Z,82.47
2018-10-19T03:13:40.953Z,82.37
2018-10-19T03:14:36.775Z,81.90
2018-10-19T03:15:36.748Z,81.99
2018-10-19T03:16:36.727Z,82.09
2018-10-19T03:17:36.713Z,82.09
2018-10-19T03:18:36.681Z,81.62
2018-10-19T03:19:42.215Z,81.67
2018-10-19T03:20:36.636Z,82.24
2018-10-19T03:21:36.613Z,82.52
2018-10-19T03:22:36.592Z,82.43
2018-10-19T03:23:36.568Z,82.52
2018-10-19T03:24:36.546Z,82.33
2018-10-19T03:25:42.028Z,82.33
2018-10-19T03:26:36.506Z,82.24
2018-10-19T03:27:36.483Z,82.14
2018-10-19T03:29:36.544Z,82.52
2018-10-19T03:30:36.416Z,82.43
2018-10-19T03:31:41.546Z,82.24
2018-10-19T03:32:36.368Z,82.43
2018-10-19T03:33:36.355Z,82.33
2018-10-19T03:34:36.326Z,82.05
2018-10-19T03:35:36.302Z,82.24
2018-10-19T03:36:36.271Z,81.76
2018-10-19T03:37:38.867Z,81.86
2018-10-19T03:38:36.238Z,82.24
2018-10-19T03:39:36.218Z,81.48
2018-10-19T03:40:36.236Z,81.20
2018-10-19T03:41:36.152Z,80.91
2018-10-19T03:42:36.134Z,80.72
2018-10-19T03:43:39.059Z,80.63
2018-10-19T03:44:36.136Z,80.82
2018-10-19T03:45:36.366Z,80.58
2018-10-19T03:46:36.041Z,80.77
2018-10-19T03:47:36.017Z,80.68
2018-10-19T03:48:35.993Z,80.87
2018-10-19T03:49:35.970Z,81.06
2018-10-19T03:50:35.944Z,80.96
2018-10-19T03:51:35.919Z,80.58
2018-10-19T03:52:35.899Z,80.34
2018-10-19T03:53:35.877Z,79.96
2018-10-19T03:54:35.854Z,79.87
2018-10-19T03:55:35.836Z,80.15
2018-10-19T03:56:35.807Z,80.15
2018-10-19T03:57:35.783Z,80.15
2018-10-19T03:58:35.758Z,79.96
2018-10-19T03:59:40.591Z,80.06
2018-10-19T04:00:35.728Z,80.44
2018-10-19T04:02:35.667Z,80.53
2018-10-19T04:03:35.709Z,80.25
2018-10-19T04:04:35.622Z,80.25
2018-10-19T04:05:40.098Z,79.87
2018-10-19T04:06:35.575Z,80.34
2018-10-19T04:07:35.596Z,80.82
2018-10-19T04:08:36.228Z,81.10
2018-10-19T04:09:35.534Z,80.82
2018-10-19T04:10:35.486Z,80.91
2018-10-19T04:11:40.265Z,80.82
2018-10-19T04:13:35.409Z,80.44
2018-10-19T04:15:35.563Z,81.29
2018-10-19T04:16:35.440Z,81.38
2018-10-19T04:17:37.579Z,81.38
2018-10-19T04:18:35.341Z,81.29
2018-10-19T04:20:36.179Z,81.76
2018-10-19T04:21:35.227Z,82.05
2018-10-19T04:22:35.203Z,82.14
2018-10-19T04:23:35.172Z,81.86
2018-10-19T04:24:35.152Z,82.24
2018-10-19T04:25:35.183Z,81.92
2018-10-19T04:26:35.220Z,82.57
2018-10-19T04:27:35.154Z,82.48
2018-10-19T04:28:35.058Z,82.10
2018-10-19T04:29:35.217Z,81.82
2018-10-19T04:30:35.117Z,82.29
2018-10-19T04:32:34.966Z,81.63
2018-10-19T04:33:34.950Z,81.44
2018-10-19T04:34:35.672Z,80.96
2018-10-19T04:35:35.109Z,81.25
2018-10-19T04:36:34.973Z,80.77
2018-10-19T04:37:35.199Z,80.77
2018-10-19T04:38:34.906Z,80.87
2018-10-19T04:39:34.858Z,80.96
2018-10-19T04:40:34.823Z,80.87
2018-10-19T04:42:34.933Z,80.68
2018-10-19T04:43:34.700Z,80.49
2018-10-19T04:44:34.690Z,80.87
2018-10-19T04:45:34.659Z,80.58
2018-10-19T04:46:34.936Z,80.68
2018-10-19T04:47:34.686Z,80.77
2018-10-19T04:48:34.697Z,80.77
2018-10-19T04:49:34.737Z,80.77
2018-10-19T04:50:34.535Z,80.77
2018-10-19T04:51:34.515Z,80.68
2018-10-19T04:52:34.592Z,80.87
2018-10-19T04:53:34.634Z,81.34
2018-10-19T04:54:34.439Z,81.34
2018-10-19T04:55:35.886Z,81.34
2018-10-19T04:56:34.462Z,81.53
2018-10-19T04:58:34.404Z,82.10
2018-10-19T04:59:34.339Z,82.20
2018-10-19T05:00:34.393Z,81.82
2018-10-19T05:01:34.279Z,82.01
2018-10-19T05:02:34.437Z,81.82
2018-10-19T05:03:34.557Z,81.63
2018-10-19T05:04:34.310Z,81.44
2018-10-19T05:05:34.183Z,81.53
2018-10-19T05:06:34.269Z,81.25
2018-10-19T05:07:34.247Z,81.34
2018-10-19T05:08:34.260Z,80.87
2018-10-19T05:09:34.110Z,80.87
2018-10-19T05:10:34.059Z,80.58
2018-10-19T05:12:34.225Z,81.34
2018-10-19T05:14:34.065Z,81.49
2018-10-19T05:15:33.942Z,81.21
2018-10-19T05:16:33.970Z,81.40
2018-10-19T05:17:33.901Z,81.77
2018-10-19T05:18:33.868Z,81.59
2018-10-19T05:19:34.099Z,81.12
2018-10-19T05:21:33.805Z,80.55
2018-10-19T05:22:33.771Z,80.45
2018-10-19T05:23:33.747Z,80.55
2018-10-19T05:25:33.706Z,81.02
2018-10-19T05:26:33.677Z,80.45
2018-10-19T05:27:33.650Z,80.93
2018-10-19T05:28:33.790Z,80.93
2018-10-19T05:30:34.217Z,80.83
2018-10-19T05:31:35.119Z,80.55
2018-10-19T05:33:33.812Z,80.64
2018-10-19T05:35:33.470Z,80.83
2018-10-19T05:37:33.416Z,80.55
2018-10-19T05:38:51.231Z,80.26
2018-10-19T05:39:51.084Z,80.45
2018-10-19T05:40:33.610Z,80.26
2018-10-19T05:41:38.288Z,80.26
2018-10-19T05:43:33.933Z,80.26
2018-10-19T05:44:33.743Z,80.40
2018-10-19T05:45:33.244Z,80.55
2018-10-19T05:46:33.303Z,80.93
2018-10-19T05:47:33.246Z,80.83
2018-10-19T05:48:33.307Z,80.55
2018-10-19T05:49:33.120Z,81.21
2018-10-19T05:50:33.818Z,81.30
2018-10-19T05:51:33.386Z,81.30
2018-10-19T05:53:33.080Z,80.93
2018-10-19T05:55:32.998Z,80.83
2018-10-19T05:56:33.260Z,80.74
2018-10-19T05:57:32.933Z,80.74
2018-10-19T05:59:32.891Z,80.77
2018-10-19T06:00:32.862Z,80.83
2018-10-19T06:01:32.859Z,80.74
2018-10-19T06:02:32.838Z,81.34
2018-10-19T06:03:33.285Z,81.63
2018-10-19T06:05:32.740Z,81.44
2018-10-19T06:06:32.719Z,81.82
2018-10-19T06:07:32.694Z,81.63
2018-10-19T06:08:32.965Z,82.01
2018-10-19T06:09:32.642Z,82.01
2018-10-19T06:10:32.616Z,81.82
2018-10-19T06:11:32.598Z,81.53
2018-10-19T06:12:32.598Z,82.01
2018-10-19T06:13:32.586Z,82.20
2018-10-19T06:14:32.526Z,82.20
2018-10-19T06:15:32.795Z,82.10
2018-10-19T06:16:32.471Z,82.20
2018-10-19T06:17:32.576Z,82.01
2018-10-19T06:18:32.422Z,82.01
2018-10-19T06:19:32.402Z,82.01
2018-10-19T06:20:32.373Z,82.57
2018-10-19T06:23:32.306Z,82.01
2018-10-19T06:24:33.044Z,81.92
2018-10-19T06:25:36.946Z,81.82
2018-10-19T06:26:32.945Z,81.72
2018-10-19T06:27:32.207Z,81.82
2018-10-19T06:28:32.486Z,81.92
2018-10-19T06:29:32.162Z,82.29
2018-10-19T06:30:32.210Z,82.20
2018-10-19T06:31:32.112Z,82.10
2018-10-19T06:32:32.296Z,81.82
2018-10-19T06:33:32.157Z,81.63
2018-10-19T06:34:32.367Z,82.20
2018-10-19T06:35:32.522Z,81.92
2018-10-19T06:36:31.990Z,81.82
2018-10-19T06:37:31.969Z,82.01
2018-10-19T06:38:32.147Z,82.20
2018-10-19T06:39:32.180Z,81.63
2018-10-19T06:40:32.709Z,81.72
2018-10-19T06:43:32.243Z,81.63
2018-10-19T06:44:31.801Z,81.53
2018-10-19T06:45:32.073Z,81.25
2018-10-19T06:46:31.791Z,80.49
2018-10-19T06:47:33.189Z,80.58
2018-10-19T06:48:32.311Z,80.77
2018-10-19T06:49:31.681Z,80.96
2018-10-19T06:50:31.896Z,80.58
2018-10-19T06:51:44.680Z,80.58
2018-10-19T06:52:32.217Z,80.40
2018-10-19T06:53:31.834Z,80.21
2018-10-19T06:55:31.542Z,80.02
2018-10-19T06:56:31.520Z,80.02
2018-10-19T06:58:05.703Z,79.83
2018-10-19T06:59:31.715Z,79.55
2018-10-19T07:00:31.536Z,79.55
2018-10-19T07:01:31.541Z,79.30
2018-10-19T07:02:31.401Z,79.45
2018-10-19T07:03:31.583Z,79.68
2018-10-19T07:04:31.394Z,79.77
2018-10-19T07:06:31.341Z,79.49
2018-10-19T07:08:31.897Z,79.39
2018-10-19T07:09:31.507Z,79.39
2018-10-19T07:10:31.175Z,79.49
2018-10-19T07:12:31.152Z,79.58
2018-10-19T07:13:31.308Z,79.68
2018-10-19T07:14:31.087Z,79.68
2018-10-19T07:15:32.779Z,79.68
2018-10-19T07:17:50.215Z,79.30
2018-10-19T07:18:31.094Z,79.21
2018-10-19T07:19:32.379Z,79.58
2018-10-19T07:20:31.546Z,79.63
2018-10-19T07:22:31.251Z,79.72
2018-10-19T07:23:32.302Z,79.82
2018-10-19T07:24:30.853Z,79.15
2018-10-19T07:25:31.518Z,79.15
2018-10-19T07:26:30.835Z,79.34
2018-10-19T07:27:33.861Z,79.15
2018-10-19T07:28:31.255Z,79.06
2018-10-19T07:29:30.937Z,79.19
2018-10-19T07:30:36.981Z,79.19
2018-10-19T07:32:04.206Z,79.00
2018-10-19T07:32:30.676Z,79.00
2018-10-19T07:33:33.768Z,79.47
2018-10-19T07:34:32.382Z,78.91
2018-10-19T07:35:30.802Z,79.14
2018-10-19T07:36:30.645Z,79.04
2018-10-19T07:38:30.526Z,79.52
2018-10-19T07:39:30.708Z,78.66
2018-10-19T07:40:33.741Z,78.70
2018-10-19T07:41:30.465Z,78.70
2018-10-19T07:42:30.516Z,78.99
2018-10-19T07:43:30.415Z,80.60
2018-10-19T07:44:30.453Z,81.78
2018-10-19T07:45:30.383Z,81.68
2018-10-19T07:46:30.796Z,82.87
2018-10-19T07:47:31.531Z,84.10
2018-10-19T07:48:30.735Z,86.57
2018-10-19T07:49:30.284Z,87.90
2018-10-19T07:50:30.256Z,88.09
2018-10-19T07:51:30.299Z,87.90
2018-10-19T07:52:30.684Z,87.81
2018-10-19T07:53:33.131Z,87.52
2018-10-19T07:54:31.831Z,87.71
2018-10-19T07:56:32.116Z,88.09
2018-10-19T07:57:31.523Z,88.09
2018-10-19T07:58:30.998Z,87.34
2018-10-19T07:59:30.063Z,87.71
2018-10-19T08:00:30.131Z,87.62
2018-10-19T08:01:31.091Z,87.66
2018-10-19T08:02:31.521Z,87.85
2018-10-19T08:03:30.427Z,88.23
2018-10-19T08:04:31.423Z,88.42
2018-10-19T08:07:29.890Z,88.18
2018-10-19T08:08:29.875Z,88.28
2018-10-19T08:09:30.237Z,90.99
2018-10-19T08:10:30.558Z,92.60
2018-10-19T08:11:30.397Z,94.46
2018-10-19T08:12:30.288Z,95.89
2018-10-19T08:13:30.155Z,94.37
2018-10-19T08:14:29.950Z,95.32
2018-10-19T08:15:29.945Z,96.94
2018-10-19T08:17:29.749Z,96.65
2018-10-19T08:19:30.258Z,96.46
2018-10-19T08:20:29.646Z,95.51
2018-10-19T08:21:29.871Z,95.60
2018-10-19T08:22:29.916Z,95.89
2018-10-19T08:23:32.813Z,95.32
2018-10-19T08:24:32.590Z,96.65
2018-10-19T08:25:31.000Z,97.56
2018-10-19T08:26:55.194Z,94.32
2018-10-19T08:27:29.607Z,98.89
2018-10-19T08:28:31.272Z,99.75
2018-10-19T08:29:42.951Z,99.84
2018-10-19T08:30:30.097Z,99.22
2018-10-19T08:32:48.605Z,98.46
2018-10-19T08:33:29.385Z,99.22
2018-10-19T08:34:32.694Z,99.60
2018-10-19T08:35:29.473Z,99.04
2018-10-19T08:36:29.927Z,99.32
2018-10-19T08:37:29.966Z,99.99
2018-10-19T08:38:29.284Z,97.99
2018-10-19T08:39:30.684Z,97.22
2018-10-19T08:40:29.547Z,97.32
2018-10-19T08:41:29.797Z,99.99
2018-10-19T08:42:29.233Z,99.99
2018-10-19T08:43:29.233Z,99.56
2018-10-19T08:44:29.179Z,99.04
2018-10-19T08:45:29.162Z,99.99
2018-10-19T08:46:29.442Z,99.99
2018-10-19T08:47:29.155Z,99.99
2018-10-19T08:48:29.776Z,99.99
2018-10-19T08:49:55.031Z,99.99
2018-10-19T08:50:41.814Z,99.99
2018-10-19T08:51:29.104Z,99.99
2018-10-19T08:52:30.017Z,99.99
2018-10-19T08:53:35.372Z,99.99
2018-10-19T08:54:29.058Z,99.99
2018-10-19T08:55:29.296Z,99.99
2018-10-19T08:56:31.180Z,99.99
2018-10-19T08:57:30.416Z,99.99
2018-10-19T08:58:29.234Z,99.99
2018-10-19T08:59:30.453Z,99.99
2018-10-19T09:00:29.534Z,99.99
2018-10-19T09:01:29.035Z,99.99
2018-10-19T09:02:48.114Z,99.99
2018-10-19T09:03:29.812Z,99.99
2018-10-19T09:04:32.243Z,99.99
2018-10-19T09:05:28.820Z,99.99
2018-10-19T09:06:29.415Z,99.99
2018-10-19T09:07:30.306Z,99.99
2018-10-19T09:10:29.847Z,99.99
2018-10-19T09:11:28.849Z,99.99
2018-10-19T09:12:30.412Z,99.99
2018-10-19T09:13:29.143Z,99.99
2018-10-19T09:15:29.495Z,99.99
2018-10-19T09:16:30.132Z,99.99
2018-10-19T09:17:28.703Z,99.99
2018-10-19T09:18:28.724Z,99.99
2018-10-19T09:19:29.244Z,99.99
2018-10-19T09:20:29.182Z,99.99
2018-10-19T09:22:35.472Z,99.99
2018-10-19T09:23:28.536Z,99.99
2018-10-19T09:24:28.721Z,99.99
2018-10-19T09:25:28.968Z,99.99
2018-10-19T09:26:28.699Z,99.99
2018-10-19T09:27:28.677Z,99.99
2018-10-19T09:29:29.362Z,99.99
2018-10-19T09:30:29.123Z,99.99
2018-10-19T09:31:31.923Z,99.99
2018-10-19T09:32:29.012Z,99.99
2018-10-19T09:33:28.391Z,99.99
2018-10-19T09:34:31.406Z,99.99
2018-10-19T09:35:29.462Z,98.90
2018-10-19T09:36:28.622Z,99.99
2018-10-19T09:37:54.212Z,99.99
2018-10-19T09:38:28.518Z,99.99
2018-10-19T09:39:28.909Z,94.70
2018-10-19T09:40:29.708Z,99.29
2018-10-19T09:41:29.511Z,97.66
2018-10-19T09:42:34.736Z,97.28
2018-10-19T09:45:15.444Z,97.47
2018-10-19T09:46:25.942Z,99.10
2018-10-19T09:47:25.938Z,98.33
2018-10-19T09:48:13.200Z,97.85
2018-10-19T09:49:19.309Z,99.29
2018-10-19T09:50:13.410Z,96.99
2018-10-19T09:51:19.281Z,99.29
2018-10-19T09:52:13.229Z,95.46
2018-10-19T09:53:14.513Z,97.66
2018-10-19T09:54:13.040Z,96.13
2018-10-19T09:55:17.094Z,95.79
2018-10-19T09:58:14.242Z,95.36
2018-10-19T10:01:16.858Z,99.99
2018-10-19T10:02:16.339Z,93.12
2018-10-19T10:03:13.579Z,94.74
2018-10-19T10:04:13.146Z,94.74
2018-10-19T10:05:12.941Z,96.75
2018-10-19T10:06:13.087Z,95.65
2018-10-19T10:08:13.030Z,92.01
2018-10-19T10:09:19.412Z,90.48
2018-10-19T10:10:12.785Z,90.19
2018-10-19T10:11:12.853Z,91.34
2018-10-19T10:12:13.135Z,95.56
2018-10-19T10:14:13.084Z,90.39
2018-10-19T10:15:13.147Z,84.26
2018-10-19T10:17:13.064Z,84.06
2018-10-19T10:18:12.730Z,83.30
2018-10-19T10:19:12.831Z,86.65
2018-10-19T10:20:13.096Z,82.96
2018-10-19T10:21:52.196Z,82.96
2018-10-19T10:22:12.672Z,79.32
2018-10-19T10:23:19.249Z,81.20
2018-10-19T10:24:48.348Z,84.01
2018-10-19T10:25:13.404Z,83.72
2018-10-19T10:26:19.005Z,81.13
2018-10-19T10:28:45.998Z,79.13
2018-10-19T10:29:12.921Z,77.97
2018-10-19T10:30:15.484Z,81.90
2018-10-19T10:31:13.068Z,83.53
2018-10-19T10:32:15.593Z,79.89
2018-10-19T10:33:12.589Z,79.22
2018-10-19T10:34:13.173Z,79.89
2018-10-19T10:35:12.923Z,79.51
2018-10-19T10:36:14.199Z,83.11
2018-10-19T10:37:12.509Z,84.45
2018-10-19T10:38:17.106Z,83.78
2018-10-19T10:39:12.791Z,80.14
2018-10-19T10:40:12.708Z,82.49
2018-10-19T10:41:12.926Z,84.31
2018-10-19T10:42:12.622Z,81.86
2018-10-19T10:43:12.504Z,83.72
2018-10-19T10:44:13.110Z,79.99
2018-10-19T10:45:13.032Z,78.64
2018-10-19T10:46:13.035Z,78.07
2018-10-19T10:47:17.268Z,79.99
2018-10-19T10:48:12.785Z,78.40
2018-10-19T10:49:12.621Z,75.33
2018-10-19T10:51:13.852Z,71.63
2018-10-19T10:52:13.764Z,75.90
2018-10-19T10:53:13.253Z,75.58
2018-10-19T10:55:12.978Z,77.90
2018-10-19T10:56:12.910Z,80.48
2018-10-19T10:57:19.449Z,81.59
2018-10-19T10:58:12.539Z,81.02
2018-10-19T10:59:13.207Z,83.12
2018-10-19T11:00:18.539Z,85.71
2018-10-19T11:01:12.935Z,83.79
2018-10-19T11:02:13.631Z,85.21
2018-10-19T11:03:15.226Z,79.51
2018-10-19T11:04:18.443Z,79.83
2018-10-19T11:05:40.356Z,75.90
2018-10-19T11:06:15.192Z,73.93
2018-10-19T11:07:12.287Z,73.55
2018-10-19T11:08:12.149Z,70.86
2018-10-19T11:09:12.328Z,71.53
2018-10-19T11:10:15.250Z,74.89
2018-10-19T11:11:27.537Z,74.22
2018-10-19T11:12:12.306Z,73.45
2018-10-19T11:13:15.139Z,71.63
2018-10-19T11:14:18.722Z,74.02
2018-10-19T11:15:12.056Z,74.60
2018-10-19T11:16:12.096Z,76.32
2018-10-19T11:17:12.395Z,73.97
2018-10-19T11:18:13.820Z,74.54
2018-10-19T11:19:12.254Z,70.13
2018-10-19T11:20:14.444Z,68.95
2018-10-19T11:26:11.962Z,68.82
2018-10-19T11:27:18.219Z,69.20
2018-10-19T11:28:12.244Z,68.73
2018-10-19T11:30:11.925Z,68.53
2018-10-19T11:31:12.330Z,67.00
2018-10-19T11:32:12.151Z,66.80
2018-10-19T11:33:11.890Z,66.61
2018-10-19T11:35:11.870Z,69.26
2018-10-19T11:36:11.881Z,70.26
2018-10-19T11:37:12.439Z,69.59
2018-10-19T11:38:12.459Z,69.14
2018-10-19T11:39:11.828Z,68.24
2018-10-19T11:40:11.909Z,70.17
2018-10-19T11:41:12.469Z,68.47
2018-10-19T11:42:11.817Z,68.28
2018-10-19T11:43:12.437Z,68.66
2018-10-19T11:44:11.895Z,67.22
2018-10-19T11:45:11.811Z,69.34
2018-10-19T11:46:12.094Z,67.70
2018-10-19T11:47:11.818Z,66.13
2018-10-19T11:48:12.382Z,65.36
2018-10-19T11:49:12.842Z,65.08
2018-10-19T11:50:11.757Z,65.46
2018-10-19T11:51:11.768Z,65.94
2018-10-19T11:52:11.804Z,64.22
2018-10-19T11:53:11.971Z,64.89
2018-10-19T11:57:12.540Z,67.13
2018-10-19T11:58:11.815Z,66.84
2018-10-19T11:59:12.329Z,65.05
2018-10-19T12:00:17.929Z,65.14
2018-10-19T12:01:11.735Z,64.05
2018-10-19T12:02:12.146Z,65.11
2018-10-19T12:03:14.680Z,64.25
2018-10-19T12:04:12.340Z,64.05
2018-10-19T12:05:11.629Z,65.78
2018-10-19T12:06:11.617Z,64.05
2018-10-19T12:07:12.340Z,63.83
2018-10-19T12:08:12.134Z,65.01
2018-10-19T12:09:11.589Z,64.85
2018-10-19T12:10:11.712Z,63.79
2018-10-19T12:11:12.198Z,63.99
2018-10-19T12:12:11.561Z,65.14
2018-10-19T12:15:11.725Z,64.02
2018-10-19T12:16:12.396Z,62.77
2018-10-19T12:17:24.321Z,65.23
2018-10-19T12:18:16.834Z,66.91
2018-10-19T12:19:11.875Z,65.72
2018-10-19T12:20:12.515Z,66.68
2018-10-19T12:21:11.747Z,66.39
2018-10-19T12:22:13.272Z,66.74
2018-10-19T12:24:12.983Z,68.47
2018-10-19T12:25:12.261Z,68.76
2018-10-19T12:26:12.767Z,68.66
2018-10-19T12:27:12.209Z,68.66
2018-10-19T12:28:14.531Z,67.22
2018-10-19T12:29:11.430Z,68.66
2018-10-19T12:30:14.538Z,68.40
2018-10-19T12:31:11.493Z,69.07
2018-10-19T12:32:11.916Z,71.59
2018-10-19T12:33:11.522Z,73.66
2018-10-19T12:34:11.596Z,74.15
2018-10-19T12:35:12.019Z,74.37
2018-10-19T12:36:17.754Z,73.41
2018-10-19T12:37:14.561Z,72.39
2018-10-19T12:38:14.708Z,71.76
2018-10-19T12:40:17.795Z,69.68
2018-10-19T12:42:15.056Z,68.57
2018-10-19T12:43:14.940Z,69.43
2018-10-19T12:44:18.758Z,68.08
2018-10-19T12:45:17.830Z,66.30
2018-10-19T12:46:17.620Z,63.99
2018-10-19T12:47:24.114Z,64.47
2018-10-19T12:48:14.394Z,64.31
2018-10-19T12:49:11.847Z,64.28
2018-10-19T12:50:11.613Z,65.05
2018-10-19T12:51:11.880Z,66.97
2018-10-19T12:52:44.710Z,67.35
2018-10-19T12:54:11.913Z,64.31
2018-10-19T12:56:11.764Z,63.41
2018-10-19T12:57:11.302Z,62.71
2018-10-19T12:58:11.239Z,62.99
2018-10-19T12:59:11.238Z,63.60
2018-10-19T13:00:11.193Z,63.99
2018-10-19T13:01:11.249Z,61.68
2018-10-19T13:02:13.382Z,60.63
2018-10-19T13:03:12.713Z,61.87
2018-10-19T13:04:12.086Z,61.78
2018-10-19T13:07:02.645Z,63.57
2018-10-19T13:07:56.543Z,65.20
2018-10-19T13:16:57.590Z,63.02
2018-10-19T13:18:56.688Z,66.55
2018-10-19T13:19:56.815Z,64.05
2018-10-19T13:20:56.665Z,63.19
2018-10-19T13:21:56.233Z,63.38
2018-10-19T13:22:58.735Z,65.20
2018-10-19T13:23:56.554Z,63.38
2018-10-19T13:24:56.305Z,63.48
2018-10-19T13:26:57.075Z,64.43
2018-10-19T13:28:02.483Z,65.30
2018-10-19T13:28:56.088Z,68.76
2018-10-19T13:29:56.630Z,68.08
2018-10-19T13:30:56.051Z,66.55
2018-10-19T13:31:56.050Z,67.07
2018-10-19T13:33:00.589Z,66.42
2018-10-19T13:33:57.448Z,65.75
2018-10-19T13:34:56.679Z,64.50
2018-10-19T13:35:56.544Z,63.89
2018-10-19T13:36:57.421Z,64.18
2018-10-19T13:37:56.018Z,65.20
2018-10-19T13:38:56.316Z,63.54
2018-10-19T13:39:56.072Z,64.09
2018-10-19T13:40:55.979Z,65.84
2018-10-19T13:41:56.092Z,66.67
2018-10-19T13:42:56.562Z,66.58
2018-10-19T13:43:56.442Z,68.46
2018-10-19T13:44:56.331Z,67.63
2018-10-19T13:46:55.974Z,65.88
2018-10-19T13:47:57.332Z,63.96
2018-10-19T13:48:55.911Z,64.05
2018-10-19T13:50:56.193Z,62.64
2018-10-19T13:51:55.981Z,62.61
2018-10-19T13:52:55.914Z,63.64
2018-10-19T13:53:55.952Z,64.40
2018-10-19T13:55:56.160Z,66.84
2018-10-19T13:56:55.881Z,66.36
2018-10-19T13:58:56.354Z,62.99
2018-10-19T13:59:55.803Z,63.67
2018-10-19T14:00:56.055Z,62.81
2018-10-19T14:01:57.203Z,62.13
2018-10-19T14:02:55.844Z,62.81
2018-10-19T14:03:57.567Z,64.12
2018-10-19T14:04:56.556Z,63.92
2018-10-19T14:05:55.804Z,64.98
2018-10-19T14:07:56.349Z,64.98
2018-10-19T14:08:56.303Z,66.71
2018-10-19T14:09:56.520Z,67.19
2018-10-19T14:10:55.940Z,67.09
2018-10-19T14:11:55.864Z,67.09
2018-10-19T14:12:56.019Z,67.00
2018-10-19T14:13:55.995Z,66.23
2018-10-19T14:14:58.808Z,66.77
2018-10-19T14:15:55.992Z,66.10
2018-10-19T14:16:55.883Z,64.85
2018-10-19T14:17:55.652Z,64.37
2018-10-19T14:18:55.886Z,64.56
2018-10-19T14:20:08.552Z,65.52
2018-10-19T14:20:57.110Z,66.33
2018-10-19T14:21:57.664Z,66.42
2018-10-19T14:22:55.975Z,65.94
2018-10-19T14:23:55.841Z,65.62
2018-10-19T14:25:55.826Z,65.23
2018-10-19T14:26:55.728Z,65.05
2018-10-19T14:28:55.872Z,65.05
2018-10-19T14:29:56.069Z,66.00
2018-10-19T14:30:56.010Z,67.32
2018-10-19T14:31:55.558Z,67.89
2018-10-19T14:32:55.727Z,70.25
2018-10-19T14:33:55.545Z,69.87
2018-10-19T14:35:55.974Z,71.21
2018-10-19T14:36:56.096Z,73.76
2018-10-19T14:37:56.405Z,74.20
2018-10-19T14:38:55.485Z,74.58
2018-10-19T14:39:55.422Z,76.56
2018-10-19T14:40:55.481Z,78.95
2018-10-19T14:41:55.590Z,80.87
2018-10-19T14:42:55.753Z,81.78
2018-10-19T14:43:55.383Z,82.93
2018-10-19T14:44:55.418Z,83.22
2018-10-19T14:45:55.347Z,85.32
2018-10-19T14:46:55.943Z,87.33
2018-10-19T14:47:55.408Z,88.38
2018-10-19T14:51:55.953Z,84.65
2018-10-19T14:53:08.151Z,84.17
2018-10-19T14:53:55.981Z,82.78
2018-10-19T14:54:56.822Z,80.77
2018-10-19T14:55:55.602Z,80.04
2018-10-19T14:56:55.399Z,79.95
2018-10-19T14:57:55.216Z,80.71
2018-10-19T14:58:55.925Z,80.71
2018-10-19T14:59:55.383Z,78.28
2018-10-19T15:00:55.444Z,79.33
2018-10-19T15:01:56.828Z,77.70